Borrazopolis, Brazil
Current Conditions -  °F | °C
As of 7:00 PM on Friday 24 Oct 2014 (Local Time) from SBLO Reporting Station
Few Clouds Few Clouds  
Wind Chill: 81°   Ceiling: Unl
Heat Index: 82°   Visibility: 6mi
Dew Point: 63°   Wind: 7mph
Humidity: 54%   Direction: 240°WSW
Pressure: 29.88"   Gusts: NA
Location:  23.95°S, 51.59°W
Report Text: SBLO 242100Z 24006KT 9999 FEW040 27/17 Q1012
Loading
Personal Weather Stations






























Interactive Weather Map
Tropical Storm Tracking
New forecast layout! Learn more

10-Day Weather Forecast

Advertisements
Track Severe Weather on mobile